Bucks Bridge, New York
Current Conditions -  °F | °C
As of 9:53 AM on Thursday 23 Oct 2014 (Local Time) from KMSS Reporting Station
Overcast Overcast  
Wind Chill: 42°   Ceiling: 4100
Heat Index: 48°   Visibility: 10mi
Dew Point: 36°   Wind: 17mph
Humidity: 63%   Direction: 30°NNE
Pressure: 30.08"   Gusts: 25mph
Location:  44.5792°N, 75.1592°W
Report Text: KMSS 231353Z AUTO 03015G22KT 10SM BKN041 OVC048 09/02 A3008 RMK AO2 SLP189 T00890022
Loading
Personal Weather Stations






























Interactive Weather Map
Tropical Storm Tracking
New forecast layout! Learn more

10-Day Weather Forecast

Advertisements
Track Severe Weather on mobile